ADDS METAR Data INFO
IDs: Format: Raw Decoded Include TAF

Data at: 1956 UTC 15 Dec 2017

KVIH 151953Z AUTO 28010KT 10SM OVC040 04/M04 A3008 RMK AO2 SLP195 T00441039
KVIH 151853Z AUTO 29011G20KT 10SM OVC040 04/M04 A3009 RMK AO2 SLP196 T00441044
KVIH 151753Z AUTO 29009G17KT 10SM SCT034 04/M04 A3011 RMK AO2 SLP206 T00391039 10050 21017 50002
KVIH 151653Z AUTO 31011KT 10SM SCT036 04/M03 A3013 RMK AO2 SLP212 T00391033
KVIH 151553Z AUTO 29010KT 10SM CLR 03/M03 A3013 RMK AO2 SLP212 T00331028
KVIH 151453Z AUTO 25008KT 10SM CLR 01/M04 A3011 RMK AO2 SLP205 T00111039 51001
KVIH 151353Z AUTO 23006KT 10SM OVC060 M01/M04 A3010 RMK AO2 SLP204 T10111044
KVIH 151253Z AUTO 23006KT 10SM OVC060 M02/M04 A3011 RMK AO2 SLP207 T10171044
KVIH 151153Z AUTO 21007KT 10SM OVC049 M02/M04 A3010 RMK AO2 SLP205 T10171044 11006 21072 55001
KVIH 151053Z AUTO 22006KT 10SM CLR M07/M08 A3010 RMK AO2 SLP205 T10721083
KVIH 150953Z AUTO 25004KT 10SM BKN035 M03/M06 A3011 RMK AO2 SLP205 T10281056
KVIH 150853Z AUTO 25004KT 10SM OVC035 M01/M05 A3011 RMK AO2 SLP206 T10111050 53003
KVIH 150753Z AUTO 20006KT 10SM OVC035 M01/M05 A3010 RMK AO2 SLP201 T10111050
KVIH 150653Z AUTO 22004KT 10SM OVC037 M02/M05 A3009 RMK AO2 SLP199 T10171050
KVIH 150553Z AUTO 00000KT 10SM OVC040 M02/M05 A3010 RMK AO2 SLP203 T10221050 10000 21028 400441028 58006
KVIH 150453Z AUTO 00000KT 10SM OVC044 M02/M06 A3012 RMK AO2 SLP210 T10171056
KVIH 150353Z AUTO 00000KT 10SM OVC045 M02/M06 A3013 RMK AO2 SLP213 T10171056
KVIH 150253Z AUTO 03004KT 10SM OVC037 M01/M06 A3012 RMK AO2 SLP210 T10111056 51010
KVIH 150153Z AUTO 33004KT 10SM OVC034 M01/M06 A3012 RMK AO2 SLP208 T10061056
KVIH 150053Z AUTO 34003KT 10SM OVC036 M01/M06 A3010 RMK AO2 SLP202 T10061056
KVIH 142353Z AUTO 33005KT 10SM OVC040 00/M06 A3009 RMK AO2 SLP200 T00001056 10017 20000 53010
KVIH 142253Z AUTO 32005KT 10SM OVC037 01/M06 A3008 RMK AO2 SLP195 T00061061
KVIH 142153Z AUTO 29010KT 10SM OVC036 01/M06 A3007 RMK AO2 SLP191 T00111061
KVIH 142053Z AUTO 32007KT 10SM OVC034 02/M06 A3006 RMK AO2 SLP187 T00171056 53001
KVIH 141953Z AUTO 32007KT 290V010 10SM OVC030 01/M06 A3005 RMK AO2 SLP185 T00111056
KVIH 141942Z AUTO 31006KT 10SM OVC032 01/M06 A3005 RMK AO2 T00111056
KVIH 141853Z AUTO 31005KT 10SM OVC027 01/M05 A3004 RMK AO2 SLP180 T00111050
KVIH 141753Z AUTO 31006KT 10SM OVC028 01/M05 A3005 RMK AO2 SLP184 T00111050 10011 21011 58004
KVIH 141751Z AUTO 30007KT 10SM OVC028 01/M05 A3006 RMK AO2
KVIH 141734Z AUTO 33006KT 10SM OVC030 01/M05 A3006 RMK AO2 T00111050
KVIH 141653Z AUTO 31006KT 10SM OVC029 01/M05 A3008 RMK AO2 SLP192 T00061050
KVIH 141634Z AUTO 32004KT 10SM OVC029 01/M05 A3007 RMK AO2 T00061050
KVIH 141553Z AUTO 33005KT 10SM OVC030 01/M05 A3007 RMK AO2 SLP188 T00061050
KVIH 141453Z AUTO 32007KT 10SM OVC032 00/M06 A3005 RMK AO2 SLP180 T00001056 53020
KVIH 141353Z AUTO 33005KT 10SM OVC033 00/M06 A3001 RMK AO2 SLP169 T00001056
KVIH 141253Z AUTO 32006KT 10SM OVC031 M01/M06 A3000 RMK AO2 SLP164 T10061061
KVIH 141153Z AUTO 32006KT 10SM OVC036 M01/M06 A2998 RMK AO2 SLP158 T10111061 10044 21028 52023
KVIH 141053Z AUTO 29006KT 10SM CLR M02/M07 A2996 RMK AO2 SLP151 T10221067
KVIH 140953Z AUTO 30005KT 10SM CLR M02/M06 A2994 RMK AO2 SLP141 T10171061
KVIH 140853Z AUTO 35008KT 10SM CLR 01/M06 A2992 RMK AO2 SLP133 T00061056 51007